Squaw Lake, Minnesota
Current Conditions -  °F | °C
As of 5:13 PM on Thursday 27 Nov 2014 (Local Time) from KFOZ Reporting Station
Clear Clear  
Wind Chill:   Ceiling: Unl
Heat Index:   Visibility: 10mi
Dew Point: -8°   Wind: 0mph
Humidity: 72%   Direction: NA
Pressure: 30.29"   Gusts: NA
Location:  47.63°N, 94.14°W
Report Text: KFOZ 272313Z AUTO 00000KT 10SM CLR M18/M22 A3029 RMK AO2
Loading
Personal Weather Stations






























Interactive Weather Map New forecast layout! Learn more

10-Day Weather Forecast

Advertisements
Track Severe Weather on mobile